Time;durP1;ratioP1;P1;durP2;ratioP2;P2;SDS_P1;SDS_P2;PMS_P1;PMS_P2;Temp;Humidity;BMP_temperature;BMP_pressure;BME280_temperature;BME280_humidity;BME280_pressure;Samples;Min_cycle;Max_cycle;Signal;HPM_P1;HPM_P2
2021/07/19 00:00:36;;;;;;;0.00;0.00;;;;;;;21.84;57.93;102390.31;5055345;28;20025;-90
2021/07/19 00:03:05;;;;;;;0.28;0.28;;;;;;;21.80;57.76;102400.34;5054721;28;20044;-91
2021/07/19 00:05:31;;;;;;;0.10;0.10;;;;;;;21.78;57.55;102394.13;5054940;28;20040;-91
2021/07/19 00:07:58;;;;;;;0.10;0.10;;;;;;;21.77;57.85;102389.69;5054898;28;20060;-90
2021/07/19 00:10:25;;;;;;;0.00;0.00;;;;;;;21.74;57.91;102384.44;5054853;28;20442;-91
2021/07/19 00:12:52;;;;;;;0.10;0.10;;;;;;;21.72;57.95;102386.31;5055057;28;20029;-91
2021/07/19 00:15:23;;;;;;;0.10;0.10;;;;;;;21.70;58.84;102382.81;5054703;28;20040;-90
2021/07/19 00:17:50;;;;;;;0.00;0.00;;;;;;;21.69;58.25;102383.75;5054883;28;20495;-91
2021/07/19 00:20:18;;;;;;;0.10;0.10;;;;;;;21.68;58.34;102390.09;5054503;28;20032;-90
2021/07/19 00:22:45;;;;;;;0.05;0.05;;;;;;;21.64;57.62;102392.91;5054839;28;20033;-91
2021/07/19 00:25:13;;;;;;;1.98;1.35;;;;;;;21.60;58.22;102391.28;5054476;28;20463;-91
2021/07/19 00:27:41;;;;;;;0.00;0.00;;;;;;;21.57;58.22;102386.03;5054274;28;20116;-90
2021/07/19 00:30:10;;;;;;;0.63;0.55;;;;;;;21.55;58.18;102389.69;5053852;28;20111;-91
2021/07/19 00:32:38;;;;;;;0.10;0.10;;;;;;;21.51;58.40;102388.94;5054447;28;20381;-91
2021/07/19 00:35:05;;;;;;;0.10;0.10;;;;;;;21.48;58.68;102397.16;5054605;28;20395;-90
2021/07/19 00:37:31;;;;;;;0.10;0.10;;;;;;;21.46;58.60;102399.06;5054913;28;20029;-91
2021/07/19 00:39:58;;;;;;;0.10;0.10;;;;;;;21.44;58.56;102395.53;5054280;28;20067;-91
2021/07/19 00:42:25;;;;;;;0.00;0.00;;;;;;;21.43;58.66;102407.25;5054367;28;20108;-92
2021/07/19 00:44:51;;;;;;;0.00;0.00;;;;;;;21.41;58.65;102406.41;5053951;28;20040;-90
2021/07/19 00:47:18;;;;;;;0.10;0.10;;;;;;;21.39;58.54;102411.03;5054579;28;20028;-91
2021/07/19 00:49:45;;;;;;;0.20;0.20;;;;;;;21.36;58.99;102412.03;5054399;28;20086;-91
2021/07/19 00:52:12;;;;;;;0.10;0.10;;;;;;;21.37;58.67;102412.88;5054035;28;20025;-90
2021/07/19 00:54:41;;;;;;;2.75;0.50;;;;;;;21.29;58.67;102414.06;5054267;28;20033;-91
2021/07/19 00:57:08;;;;;;;0.10;0.10;;;;;;;21.25;59.10;102404.38;5054202;28;20071;-92
2021/07/19 00:59:36;;;;;;;0.30;0.30;;;;;;;21.23;59.06;102402.66;5054065;28;20029;-91
2021/07/19 01:02:05;;;;;;;0.55;0.55;;;;;;;21.21;59.69;102396.44;5054271;28;20025;-91
2021/07/19 01:04:34;;;;;;;0.10;0.10;;;;;;;21.19;59.14;102393.81;5054415;28;20037;-90
2021/07/19 01:07:03;;;;;;;0.10;0.10;;;;;;;21.17;59.49;102384.91;5054495;28;20087;-91
2021/07/19 01:09:30;;;;;;;0.13;0.13;;;;;;;21.16;58.83;102393.97;5053642;28;20060;-91
2021/07/19 01:11:59;;;;;;;0.05;0.05;;;;;;;21.16;59.04;102393.97;5053526;28;20035;-91
2021/07/19 01:14:26;;;;;;;1.23;0.32;;;;;;;21.14;59.07;102399.41;5053713;28;20032;-91
2021/07/19 01:16:54;;;;;;;0.00;0.00;;;;;;;21.14;58.92;102395.84;5053854;28;20032;-91
2021/07/19 01:19:22;;;;;;;0.55;0.55;;;;;;;21.13;58.82;102388.69;5053593;28;20029;-91
2021/07/19 01:25:27;;;;;;;0.40;0.40;;;;;;;21.21;58.71;102383.88;5111200;27;20391;-89
2021/07/19 01:28:09;;;;;;;0.17;0.17;;;;;;;21.14;58.74;102369.75;5111457;28;20028;-90
2021/07/19 01:30:41;;;;;;;1.10;0.55;;;;;;;21.11;58.70;102369.00;5111120;28;20085;-91
2021/07/19 01:33:08;;;;;;;0.25;0.25;;;;;;;21.07;59.00;102381.75;5103491;28;20036;-89
2021/07/19 01:35:39;;;;;;;0.28;0.28;;;;;;;21.06;58.94;102387.16;5090868;28;20028;-90
2021/07/19 01:38:12;;;;;;;0.00;0.00;;;;;;;21.07;58.49;102376.34;5091254;28;20043;-90
2021/07/19 01:40:40;;;;;;;0.10;0.10;;;;;;;20.99;58.92;102386.53;5090535;28;20028;-90
2021/07/19 01:43:09;;;;;;;0.65;0.63;;;;;;;20.95;58.91;102380.41;5090718;28;20036;-90
2021/07/19 01:45:38;;;;;;;0.10;0.10;;;;;;;20.94;58.98;102381.31;5090592;28;20073;-90
2021/07/19 01:48:07;;;;;;;0.10;0.10;;;;;;;20.91;59.16;102384.16;5090611;28;20020;-90
2021/07/19 01:50:36;;;;;;;0.10;0.10;;;;;;;20.90;59.47;102387.78;5090616;28;20068;-90
2021/07/19 01:53:09;;;;;;;0.03;0.03;;;;;;;20.95;59.49;102382.22;5090451;28;20115;-90
2021/07/19 01:55:36;;;;;;;0.10;0.10;;;;;;;20.90;58.93;102393.16;5090466;28;20379;-91
2021/07/19 01:58:05;;;;;;;0.08;0.08;;;;;;;20.90;59.29;102385.09;5090179;28;20085;-90
2021/07/19 02:00:32;;;;;;;0.10;0.10;;;;;;;20.88;59.13;102389.66;5090703;28;20028;-90
2021/07/19 02:02:58;;;;;;;0.00;0.00;;;;;;;20.84;58.85;102388.03;5089985;28;20426;-90
2021/07/19 02:05:28;;;;;;;4.88;0.88;;;;;;;20.82;58.75;102392.56;5090518;28;20115;-90
2021/07/19 02:07:59;;;;;;;0.77;0.77;;;;;;;20.79;59.39;102390.03;5090756;28;20039;-91
2021/07/19 02:10:25;;;;;;;0.55;0.55;;;;;;;20.75;59.23;102378.47;5089947;28;20073;-90
2021/07/19 02:12:55;;;;;;;0.10;0.10;;;;;;;20.74;59.27;102375.84;5090669;28;20059;-90
2021/07/19 02:15:21;;;;;;;0.10;0.10;;;;;;;20.72;59.08;102375.03;5090122;28;20079;-90
2021/07/19 02:17:54;;;;;;;0.00;0.00;;;;;;;20.73;58.77;102374.97;5090318;28;20089;-90
2021/07/19 02:20:23;;;;;;;0.20;0.20;;;;;;;20.69;59.50;102373.28;5089935;28;20028;-90
2021/07/19 02:22:50;;;;;;;0.05;0.05;;;;;;;20.66;59.33;102379.69;5089611;28;20610;-90
2021/07/19 02:25:17;;;;;;;0.10;0.10;;;;;;;20.64;59.27;102381.53;5090002;28;20487;-90
2021/07/19 02:27:47;;;;;;;0.10;0.10;;;;;;;20.64;59.39;102384.25;5089827;28;20528;-91
2021/07/19 02:30:16;;;;;;;0.00;0.00;;;;;;;20.63;59.51;102390.56;5090172;28;20032;-91
2021/07/19 02:32:45;;;;;;;0.20;0.20;;;;;;;20.61;59.38;102386.16;5090112;28;20044;-90
2021/07/19 02:35:14;;;;;;;0.10;0.10;;;;;;;20.58;59.08;102392.53;5081378;28;20044;-90
2021/07/19 02:37:43;;;;;;;0.65;0.65;;;;;;;20.56;59.53;102396.22;5076508;28;20032;-90
2021/07/19 02:40:11;;;;;;;0.10;0.10;;;;;;;20.53;59.56;102399.94;5076501;28;20050;-91
2021/07/19 02:42:42;;;;;;;0.00;0.00;;;;;;;20.52;60.07;102396.38;5076016;28;20028;-91
2021/07/19 02:45:14;;;;;;;0.10;0.10;;;;;;;20.53;59.35;102394.53;5076005;28;20403;-91
2021/07/19 02:47:44;;;;;;;0.00;0.00;;;;;;;20.54;59.38;102393.59;5076271;28;20187;-90
2021/07/19 02:50:13;;;;;;;4.63;1.50;;;;;;;20.51;59.96;102404.47;5076319;28;20484;-90
2021/07/19 02:52:42;;;;;;;0.05;0.05;;;;;;;20.52;59.21;102403.53;5076281;28;20483;-90
2021/07/19 02:55:09;;;;;;;0.00;0.00;;;;;;;20.49;59.75;102406.38;5076368;28;20051;-91
2021/07/19 02:57:37;;;;;;;0.00;0.00;;;;;;;20.45;59.63;102400.22;5075715;28;20040;-91
2021/07/19 03:00:09;;;;;;;0.50;0.50;;;;;;;20.47;59.73;102401.03;5075812;28;20017;-90
2021/07/19 03:02:43;;;;;;;0.82;0.57;;;;;;;20.47;59.73;102394.75;5075369;28;20217;-91
2021/07/19 03:05:13;;;;;;;0.10;0.10;;;;;;;20.45;59.39;102394.81;5075950;28;20024;-91
2021/07/19 03:07:40;;;;;;;0.10;0.10;;;;;;;20.42;59.95;102396.75;5075653;28;20035;-90
2021/07/19 03:10:10;;;;;;;0.30;0.30;;;;;;;20.40;59.56;102396.81;5075483;28;20039;-91
2021/07/19 03:12:39;;;;;;;1.15;0.95;;;;;;;20.39;59.89;102394.16;5075314;28;20571;-91
2021/07/19 03:15:07;;;;;;;0.10;0.10;;;;;;;20.36;59.78;102387.97;5075386;28;20025;-91
2021/07/19 03:17:38;;;;;;;0.00;0.00;;;;;;;20.38;59.85;102382.53;5075901;28;20613;-92
2021/07/19 03:20:06;;;;;;;0.00;0.00;;;;;;;20.33;59.96;102388.06;5075622;28;20032;-91
2021/07/19 03:22:38;;;;;;;0.10;0.10;;;;;;;20.34;59.86;102394.34;5075051;28;20024;-90
2021/07/19 03:25:07;;;;;;;0.10;0.10;;;;;;;20.28;59.90;102387.38;5075484;28;20028;-91
2021/07/19 03:27:35;;;;;;;0.63;0.25;;;;;;;20.26;59.96;102391.03;5074894;28;20028;-92
2021/07/19 03:30:04;;;;;;;0.20;0.20;;;;;;;20.22;59.69;102392.97;5075593;28;20024;-91
2021/07/19 03:32:31;;;;;;;0.00;0.00;;;;;;;20.18;60.22;102394.88;5075111;28;20025;-90
2021/07/19 03:34:59;;;;;;;0.10;0.10;;;;;;;20.17;60.30;102403.03;5074854;28;20025;-91
2021/07/19 03:37:26;;;;;;;0.85;0.85;;;;;;;20.14;60.60;102400.47;5074860;28;20028;-92
2021/07/19 03:39:55;;;;;;;0.03;0.03;;;;;;;20.15;59.81;102405.78;5075120;28;20380;-91
2021/07/19 03:42:21;;;;;;;0.10;0.10;;;;;;;20.13;60.34;102401.38;5075051;28;20033;-91
2021/07/19 03:44:50;;;;;;;0.40;0.40;;;;;;;20.11;60.39;102408.63;5074680;28;20475;-92
2021/07/19 03:47:17;;;;;;;0.25;0.20;;;;;;;20.09;60.24;102408.69;5073852;28;20116;-91
2021/07/19 03:49:45;;;;;;;0.03;0.03;;;;;;;20.10;60.17;102417.63;5074962;28;20051;-90
2021/07/19 03:52:12;;;;;;;0.10;0.10;;;;;;;20.11;60.65;102412.22;5074478;28;20060;-91
2021/07/19 03:54:39;;;;;;;0.10;0.10;;;;;;;20.09;60.29;102415.84;5074380;28;20032;-91
2021/07/19 03:57:06;;;;;;;1.02;0.20;;;;;;;20.09;59.80;102411.38;5074767;28;20028;-90
2021/07/19 03:59:34;;;;;;;0.08;0.08;;;;;;;20.11;60.46;102419.38;5074279;28;20029;-91
2021/07/19 04:02:09;;;;;;;3.40;0.68;;;;;;;20.12;60.31;102407.69;5074454;28;20125;-91
2021/07/19 04:04:40;;;;;;;0.10;0.10;;;;;;;20.15;60.27;102416.53;5074726;28;20028;-91
2021/07/19 04:07:08;;;;;;;0.10;0.10;;;;;;;20.18;60.03;102415.56;5074346;28;20380;-91
2021/07/19 04:09:38;;;;;;;0.45;0.45;;;;;;;20.19;60.35;102406.53;5074774;28;20029;-91
2021/07/19 04:12:09;;;;;;;0.10;0.10;;;;;;;20.19;60.20;102401.16;5074829;28;20060;-91
2021/07/19 04:14:36;;;;;;;1.27;1.17;;;;;;;20.23;60.33;102402.81;5074003;28;20056;-91
2021/07/19 04:17:04;;;;;;;0.25;0.25;;;;;;;20.26;60.25;102401.81;5074360;28;20021;-91
2021/07/19 04:19:32;;;;;;;0.38;0.38;;;;;;;20.31;60.33;102399.81;5073988;28;20107;-91
2021/07/19 04:21:59;;;;;;;0.00;0.00;;;;;;;20.31;60.58;102405.22;5074332;28;20028;-91
2021/07/19 04:24:26;;;;;;;0.25;0.25;;;;;;;20.32;60.49;102401.59;5073852;28;20523;-91
2021/07/19 04:26:54;;;;;;;0.00;0.00;;;;;;;20.34;60.48;102395.22;5074455;28;20056;-91
2021/07/19 04:29:22;;;;;;;0.03;0.03;;;;;;;20.38;60.20;102393.28;5073890;28;20506;-91
2021/07/19 04:31:58;;;;;;;0.05;0.05;;;;;;;20.45;60.31;102391.25;5074239;28;20090;-91
2021/07/19 04:34:28;;;;;;;0.13;0.13;;;;;;;20.42;60.48;102380.59;5073439;28;20032;-91
2021/07/19 04:37:00;;;;;;;0.00;0.00;;;;;;;20.43;60.18;102377.84;5073802;28;20078;-91
2021/07/19 04:39:29;;;;;;;0.10;0.10;;;;;;;20.44;60.29;102381.44;5073957;28;20115;-91
2021/07/19 04:41:56;;;;;;;0.43;0.43;;;;;;;20.43;60.33;102394.00;5073926;28;20016;-91
2021/07/19 04:44:22;;;;;;;0.10;0.10;;;;;;;20.48;60.05;102391.16;5073666;28;20119;-91
2021/07/19 04:46:50;;;;;;;0.10;0.10;;;;;;;20.52;60.13;102393.66;5073368;28;20032;-91
2021/07/19 04:49:17;;;;;;;0.20;0.20;;;;;;;20.59;60.44;102391.63;5073395;28;20024;-91
2021/07/19 04:51:47;;;;;;;0.30;0.30;;;;;;;20.68;60.33;102398.47;5073784;28;20033;-92
2021/07/19 04:54:22;;;;;;;0.20;0.20;;;;;;;20.82;60.40;102397.97;5073658;28;20041;-91
2021/07/19 04:56:51;;;;;;;0.10;0.10;;;;;;;20.87;60.50;102398.66;5073785;28;20020;-91
2021/07/19 04:59:19;;;;;;;0.10;0.10;;;;;;;20.89;60.19;102395.94;5073278;28;20039;-91
2021/07/19 05:01:49;;;;;;;0.00;0.00;;;;;;;20.88;60.52;102395.03;5073766;28;20029;-91
2021/07/19 05:04:18;;;;;;;0.00;0.00;;;;;;;20.86;60.01;102399.63;5072973;28;20024;-91
2021/07/19 05:06:46;;;;;;;1.55;0.95;;;;;;;20.84;60.09;102396.09;5073544;28;20071;-92
2021/07/19 05:09:15;;;;;;;0.10;0.10;;;;;;;20.82;60.44;102395.28;5073288;28;20379;-91
2021/07/19 05:11:42;;;;;;;0.10;0.10;;;;;;;20.78;60.12;102393.66;5073121;28;20503;-91
2021/07/19 05:14:09;;;;;;;0.00;0.00;;;;;;;20.80;60.09;102394.47;5073245;28;20032;-91
2021/07/19 05:16:36;;;;;;;0.00;0.00;;;;;;;20.77;60.37;102391.88;5073530;28;20024;-91
2021/07/19 05:19:04;;;;;;;0.10;0.10;;;;;;;20.76;60.14;102390.13;5073461;28;20071;-92
2021/07/19 05:21:35;;;;;;;0.10;0.10;;;;;;;20.77;60.06;102397.28;5073186;28;20163;-92
2021/07/19 05:24:02;;;;;;;0.10;0.10;;;;;;;20.72;60.46;102388.50;5073025;28;20067;-92
2021/07/19 05:26:29;;;;;;;0.15;0.15;;;;;;;20.72;60.38;102393.88;5073689;28;20111;-91
2021/07/19 05:28:59;;;;;;;0.10;0.10;;;;;;;20.70;60.61;102402.00;5073337;28;20025;-92
2021/07/19 05:31:26;;;;;;;0.20;0.20;;;;;;;20.72;60.59;102402.81;5071727;28;20032;-91
2021/07/19 05:33:53;;;;;;;0.10;0.10;;;;;;;20.72;60.33;102399.25;5073562;28;20384;-91
2021/07/19 05:36:20;;;;;;;0.28;0.28;;;;;;;20.75;60.41;102394.66;5073294;28;20029;-91
2021/07/19 05:38:46;;;;;;;0.00;0.00;;;;;;;20.78;60.77;102397.19;5073271;28;20185;-92
2021/07/19 05:41:13;;;;;;;0.00;0.00;;;;;;;20.85;60.30;102405.94;5073533;28;20078;-91
2021/07/19 05:43:40;;;;;;;0.00;0.00;;;;;;;20.91;60.47;102404.81;5072818;28;20031;-92
2021/07/19 05:46:07;;;;;;;0.10;0.10;;;;;;;20.98;60.44;102400.94;5073018;28;20036;-92
2021/07/19 05:48:35;;;;;;;0.20;0.20;;;;;;;21.08;59.97;102396.06;5073448;28;20032;-92
2021/07/19 05:51:02;;;;;;;0.10;0.10;;;;;;;21.16;59.96;102385.88;5073193;28;20078;-93
2021/07/19 05:53:28;;;;;;;0.20;0.20;;;;;;;21.25;59.76;102382.78;5072802;28;20029;-92
2021/07/19 05:55:54;;;;;;;0.68;0.68;;;;;;;21.33;59.87;102383.38;5073354;28;20051;-93
2021/07/19 05:58:20;;;;;;;0.55;0.25;;;;;;;21.42;59.52;102394.69;5073100;28;20082;-92
2021/07/19 06:00:47;;;;;;;0.10;0.10;;;;;;;21.49;59.41;102388.13;5073090;28;20025;-92
2021/07/19 06:03:13;;;;;;;0.10;0.10;;;;;;;21.54;58.85;102386.09;5072552;28;20035;-91
2021/07/19 06:05:39;;;;;;;0.10;0.10;;;;;;;21.57;59.30;102391.41;5073040;28;20024;-91
2021/07/19 06:08:06;;;;;;;0.13;0.13;;;;;;;21.63;59.02;102387.56;5073030;28;20032;-92
2021/07/19 06:10:33;;;;;;;0.10;0.10;;;;;;;21.68;59.15;102395.47;5074796;28;20035;-92
2021/07/19 06:12:59;;;;;;;0.05;0.05;;;;;;;21.72;58.82;102387.19;5076816;28;20025;-93
2021/07/19 06:15:25;;;;;;;0.25;0.25;;;;;;;21.80;59.05;102394.97;5076428;28;20031;-92
2021/07/19 06:17:51;;;;;;;0.25;0.25;;;;;;;21.87;58.92;102396.44;5076612;28;20032;-91
2021/07/19 06:20:27;;;;;;;0.20;0.20;;;;;;;22.00;58.83;102395.94;5076425;28;20039;-92
2021/07/19 06:22:54;;;;;;;0.05;0.05;;;;;;;22.11;58.82;102394.50;5076040;28;20044;-92
2021/07/19 06:25:23;;;;;;;0.47;0.38;;;;;;;22.22;58.76;102391.31;5076398;28;20028;-92
2021/07/19 06:27:49;;;;;;;0.43;0.43;;;;;;;22.28;58.67;102400.94;5076526;28;20383;-92
2021/07/19 06:30:15;;;;;;;0.20;0.20;;;;;;;22.36;58.51;102392.53;5076260;28;20052;-92
2021/07/19 06:32:41;;;;;;;0.20;0.20;;;;;;;22.45;58.30;102403.84;5076385;28;20379;-92
2021/07/19 06:35:11;;;;;;;0.10;0.10;;;;;;;22.51;58.20;102399.94;5075730;28;20025;-92
2021/07/19 06:37:37;;;;;;;0.32;0.32;;;;;;;22.57;57.90;102396.09;5076275;28;20033;-91
2021/07/19 06:40:06;;;;;;;0.10;0.10;;;;;;;22.62;58.36;102394.06;5076286;28;20032;-92
2021/07/19 06:42:37;;;;;;;0.10;0.10;;;;;;;22.72;57.89;102403.50;5075997;28;20028;-92
2021/07/19 06:45:06;;;;;;;0.10;0.10;;;;;;;22.75;58.14;102405.16;5075649;28;20029;-93
2021/07/19 06:47:32;;;;;;;0.15;0.15;;;;;;;22.84;57.71;102393.94;5075936;28;20352;-91
2021/07/19 06:49:59;;;;;;;0.20;0.20;;;;;;;22.88;57.66;102400.94;5076121;28;20021;-91
2021/07/19 06:52:25;;;;;;;2.42;0.40;;;;;;;22.91;57.99;102406.19;5076238;28;20340;-92
2021/07/19 06:54:52;;;;;;;0.10;0.10;;;;;;;22.91;57.91;102408.88;5076151;28;20121;-92
2021/07/19 06:57:19;;;;;;;0.40;0.40;;;;;;;22.95;57.61;102409.63;5075583;28;20487;-93
2021/07/19 06:59:47;;;;;;;0.20;0.20;;;;;;;22.98;57.53;102416.72;5075550;28;20025;-92
2021/07/19 07:02:16;;;;;;;0.10;0.10;;;;;;;23.05;57.83;102412.78;5075454;28;20056;-91
2021/07/19 07:04:43;;;;;;;0.10;0.10;;;;;;;23.11;56.98;102412.47;5076070;28;20032;-92
2021/07/19 07:07:10;;;;;;;0.10;0.10;;;;;;;23.21;57.30;102419.22;5075762;28;20020;-92
2021/07/19 07:09:37;;;;;;;0.10;0.10;;;;;;;23.28;56.98;102414.41;5075709;28;20024;-92
2021/07/19 07:12:05;;;;;;;0.30;0.30;;;;;;;23.42;56.04;102411.00;5075664;28;20029;-93
2021/07/19 07:14:31;;;;;;;0.10;0.10;;;;;;;23.47;55.87;102410.78;5075234;28;20036;-91
2021/07/19 07:16:57;;;;;;;0.43;0.43;;;;;;;23.55;55.36;102406.75;5076333;28;20028;-93
2021/07/19 07:19:27;;;;;;;0.38;0.38;;;;;;;23.60;55.58;102409.19;5075663;28;20043;-92
2021/07/19 07:21:53;;;;;;;0.10;0.10;;;;;;;23.62;55.57;102406.44;5074889;28;20016;-91
2021/07/19 07:24:20;;;;;;;0.30;0.30;;;;;;;23.69;54.26;102410.56;5074895;28;20482;-91
2021/07/19 07:26:46;;;;;;;0.20;0.20;;;;;;;23.76;54.37;102409.31;5075302;28;20037;-91
2021/07/19 07:29:13;;;;;;;1.17;0.28;;;;;;;23.85;54.75;102416.97;5075172;28;20067;-91
2021/07/19 07:31:39;;;;;;;0.80;0.80;;;;;;;23.94;54.56;102412.94;5075626;28;20447;-91
2021/07/19 07:34:05;;;;;;;0.38;0.38;;;;;;;24.01;53.73;102414.38;5075018;28;20392;-91
2021/07/19 07:36:34;;;;;;;0.30;0.30;;;;;;;24.04;53.86;102408.78;5075008;28;20024;-91
2021/07/19 07:39:02;;;;;;;0.10;0.10;;;;;;;24.16;54.18;102407.28;5074939;28;20388;-91
2021/07/19 07:41:31;;;;;;;0.10;0.10;;;;;;;24.20;53.62;102407.97;5074862;28;20116;-93
2021/07/19 07:43:58;;;;;;;0.10;0.10;;;;;;;24.26;53.71;102404.94;5074670;28;20034;-92
2021/07/19 07:46:24;;;;;;;0.10;0.10;;;;;;;24.38;52.99;102406.13;5074861;28;20029;-92
2021/07/19 07:48:54;;;;;;;0.10;0.10;;;;;;;24.53;52.69;102413.41;5074609;28;20025;-92
2021/07/19 07:51:22;;;;;;;0.10;0.10;;;;;;;24.59;52.02;102416.75;5074660;28;20035;-92
2021/07/19 07:53:58;;;;;;;1.30;1.17;;;;;;;24.77;52.73;102413.03;5074397;28;20119;-93
2021/07/19 07:56:27;;;;;;;0.20;0.20;;;;;;;24.89;51.49;102411.50;5074554;28;20054;-93
2021/07/19 07:58:53;;;;;;;3.30;0.95;;;;;;;24.90;49.38;102412.38;5074792;28;20029;-93
2021/07/19 08:01:25;;;;;;;0.20;0.20;;;;;;;25.01;51.39;102409.91;5074368;28;20461;-93
2021/07/19 08:03:51;;;;;;;0.10;0.10;;;;;;;24.99;50.69;102412.72;5074362;28;20060;-93
2021/07/19 08:06:17;;;;;;;0.10;0.10;;;;;;;25.03;50.07;102408.91;5074226;28;20039;-93
2021/07/19 08:08:44;;;;;;;0.20;0.20;;;;;;;24.98;49.25;102404.69;5074342;28;20025;-93
2021/07/19 08:11:13;;;;;;;0.20;0.20;;;;;;;24.93;46.92;102412.22;5074532;28;20063;-93
2021/07/19 08:13:39;;;;;;;0.10;0.10;;;;;;;25.03;49.96;102408.00;5074270;28;20116;-93
2021/07/19 08:16:09;;;;;;;0.28;0.28;;;;;;;25.05;48.65;102406.09;5073962;28;20421;-93
2021/07/19 08:18:35;;;;;;;0.10;0.10;;;;;;;25.07;49.40;102406.88;5074164;28;20123;-94
2021/07/19 08:21:03;;;;;;;0.20;0.20;;;;;;;25.12;48.77;102412.94;5074261;28;20039;-93
2021/07/19 08:23:30;;;;;;;0.75;0.45;;;;;;;25.30;49.40;102418.25;5073686;28;20132;-93
2021/07/19 08:25:56;;;;;;;0.20;0.20;;;;;;;25.22;48.21;102417.81;5074212;28;20533;-93
2021/07/19 08:28:22;;;;;;;0.68;0.68;;;;;;;25.46;48.52;102411.00;5074348;28;20052;-93
2021/07/19 08:30:49;;;;;;;0.10;0.10;;;;;;;25.48;45.99;102400.06;5073941;28;20483;-93
2021/07/19 08:33:15;;;;;;;0.45;0.30;;;;;;;25.63;48.25;102403.69;5073698;28;20027;-93
2021/07/19 08:35:42;;;;;;;0.17;0.17;;;;;;;25.63;48.34;102395.56;5074341;28;20028;-93
2021/07/19 08:38:08;;;;;;;0.28;0.28;;;;;;;25.78;48.13;102399.19;5073465;28;20056;-92
2021/07/19 08:40:34;;;;;;;1.08;0.40;;;;;;;25.80;48.22;102392.69;5073880;28;20078;-94
2021/07/19 08:43:03;;;;;;;0.10;0.10;;;;;;;25.87;48.35;102392.31;5074141;28;20029;-93
2021/07/19 08:45:32;;;;;;;0.25;0.25;;;;;;;25.73;46.70;102387.75;5073686;28;20029;-94
2021/07/19 08:48:02;;;;;;;0.50;0.40;;;;;;;25.69;49.00;102395.19;5073705;28;20375;-93
2021/07/19 08:50:31;;;;;;;0.52;0.20;;;;;;;25.74;49.86;102384.91;5073630;28;20472;-93
2021/07/19 08:52:57;;;;;;;0.10;0.10;;;;;;;25.89;48.80;102391.25;5073482;28;20032;-93
2021/07/19 08:55:29;;;;;;;0.00;0.00;;;;;;;25.88;48.26;102389.50;5073717;28;20024;-93
2021/07/19 08:57:56;;;;;;;0.25;0.25;;;;;;;25.96;48.12;102389.94;5073326;28;20028;-93
2021/07/19 09:00:23;;;;;;;0.50;0.50;;;;;;;26.06;48.70;102395.72;5073689;28;20033;-93
2021/07/19 09:02:49;;;;;;;1.20;0.32;;;;;;;26.13;48.30;102397.09;5073352;28;20112;-93
2021/07/19 09:05:16;;;;;;;0.28;0.28;;;;;;;26.26;47.43;102404.47;5073460;28;20039;-93
2021/07/19 09:07:48;;;;;;;0.20;0.20;;;;;;;26.24;46.43;102406.41;5073891;28;20242;-93
2021/07/19 09:10:14;;;;;;;0.40;0.40;;;;;;;26.26;46.64;102405.34;5073225;28;20597;-93
2021/07/19 09:12:43;;;;;;;0.10;0.10;;;;;;;26.23;46.52;102399.22;5073381;28;20060;-93
2021/07/19 09:15:14;;;;;;;0.22;0.22;;;;;;;26.19;46.63;102403.09;5073310;28;20080;-93
2021/07/19 09:17:41;;;;;;;0.20;0.20;;;;;;;26.25;46.54;102390.00;5073026;28;20578;-92
2021/07/19 09:20:11;;;;;;;0.10;0.10;;;;;;;26.31;46.39;102394.19;5073842;28;20476;-92
2021/07/19 09:22:41;;;;;;;0.17;0.17;;;;;;;26.41;46.66;102392.63;5072906;28;20047;-93
2021/07/19 09:30:45;;;;;;;0.20;0.20;;;;;;;26.82;45.54;102374.69;5046585;27;1374332;-92
2021/07/19 09:33:19;;;;;;;10.05;1.08;;;;;;;26.94;45.74;102383.88;5084457;28;20036;-92
2021/07/19 09:35:52;;;;;;;0.13;0.13;;;;;;;26.91;45.46;102371.34;5070881;28;20039;-91
2021/07/19 09:38:19;;;;;;;0.20;0.20;;;;;;;27.03;45.59;102366.97;5070384;28;20440;-91
2021/07/19 09:40:52;;;;;;;0.10;0.10;;;;;;;27.06;44.65;102374.91;5070500;28;20567;-92
2021/07/19 09:43:23;;;;;;;0.75;0.75;;;;;;;27.36;45.10;102372.97;5070164;28;20468;-92
2021/07/19 09:46:07;;;;;;;0.10;0.10;;;;;;;27.68;44.24;102368.09;5070495;28;20029;-92
2021/07/19 09:48:35;;;;;;;0.10;0.10;;;;;;;27.83;43.40;102374.31;5070153;28;20490;-91
2021/07/19 09:51:04;;;;;;;2.17;0.47;;;;;;;27.80;43.48;102376.38;5070291;28;20131;-92
2021/07/19 09:56:22;;;;;;;0.28;0.28;;;;;;;27.83;42.63;102365.28;4988103;28;20408;-91
2021/07/19 09:58:52;;;;;;;0.10;0.10;;;;;;;27.77;43.75;102370.16;4987852;28;20066;-93
2021/07/19 10:01:36;;;;;;;0.30;0.30;;;;;;;27.90;43.38;102366.59;4988138;28;20037;-92
2021/07/19 10:04:09;;;;;;;0.10;0.10;;;;;;;27.88;43.97;102363.13;4988452;28;20402;-91
2021/07/19 10:06:38;;;;;;;1.00;0.52;;;;;;;28.02;43.41;102360.28;4988330;28;20039;-92
2021/07/19 10:09:08;;;;;;;0.30;0.30;;;;;;;28.13;42.04;102364.16;4988174;28;20462;-92
2021/07/19 10:11:37;;;;;;;0.10;0.10;;;;;;;28.11;43.01;102355.19;4988289;28;20061;-93
2021/07/19 10:14:07;;;;;;;0.10;0.10;;;;;;;28.04;42.60;102355.63;4987832;28;20449;-92
2021/07/19 10:16:34;;;;;;;0.10;0.10;;;;;;;28.05;42.38;102357.38;4990467;28;20038;-93
2021/07/19 10:19:04;;;;;;;0.05;0.05;;;;;;;27.90;41.71;102350.25;4989574;28;20026;-94
2021/07/19 10:21:32;;;;;;;0.10;0.10;;;;;;;27.65;41.99;102351.94;4993981;28;20070;-92
2021/07/19 10:26:42;;;;;;;0.52;0.52;;;;;;;27.55;43.88;102357.19;5099533;27;20375;-91
2021/07/19 10:29:09;;;;;;;1.20;1.20;;;;;;;27.76;43.15;102353.94;5073522;28;20043;-90
2021/07/19 10:31:36;;;;;;;0.28;0.28;;;;;;;27.96;42.24;102355.25;5071092;28;20029;-91
2021/07/19 10:34:04;;;;;;;0.00;0.00;;;;;;;28.12;41.70;102354.22;5058206;28;20029;-93
2021/07/19 10:42:08;;;;;;;0.32;0.32;;;;;;;28.37;40.13;102343.28;5090938;27;20425;-91
2021/07/19 10:44:37;;;;;;;0.10;0.10;;;;;;;28.45;40.20;102344.59;5054000;28;20219;-92
2021/07/19 10:47:22;;;;;;;0.22;0.22;;;;;;;28.60;38.76;102335.31;5050446;28;20476;-92
2021/07/19 10:52:39;;;;;;;0.15;0.15;;;;;;;28.56;39.54;102331.03;5082606;27;20396;-91
2021/07/19 10:55:08;;;;;;;0.13;0.13;;;;;;;28.54;39.86;102331.16;5051044;28;20048;-92
2021/07/19 10:57:44;;;;;;;0.00;0.00;;;;;;;28.73;39.65;102332.56;5050190;28;20052;-92
2021/07/19 11:00:16;;;;;;;0.63;0.63;;;;;;;28.81;39.24;102335.59;5050801;28;20039;-92
2021/07/19 11:02:43;;;;;;;0.10;0.10;;;;;;;28.88;39.53;102341.47;5050738;28;20026;-92
2021/07/19 11:05:12;;;;;;;0.22;0.22;;;;;;;28.84;39.32;102340.81;5050793;28;20022;-92
2021/07/19 11:07:43;;;;;;;0.40;0.25;;;;;;;28.81;39.75;102332.88;5050478;28;20060;-92
2021/07/19 11:10:21;;;;;;;0.30;0.30;;;;;;;28.72;38.16;102334.44;5050259;28;20052;-92
2021/07/19 11:12:50;;;;;;;0.30;0.30;;;;;;;28.40;39.63;102326.72;5050412;28;20095;-92
2021/07/19 11:15:18;;;;;;;0.52;0.20;;;;;;;28.37;38.85;102321.47;5050483;28;20024;-91
2021/07/19 11:17:44;;;;;;;0.85;0.85;;;;;;;28.26;40.01;102324.13;5050174;28;20037;-92
2021/07/19 11:20:15;;;;;;;0.20;0.20;;;;;;;28.35;39.92;102328.03;5050355;28;20064;-93
2021/07/19 11:22:42;;;;;;;0.43;0.43;;;;;;;28.48;38.74;102315.25;5050612;28;20083;-90
2021/07/19 11:25:14;;;;;;;0.10;0.10;;;;;;;28.66;39.53;102310.31;5050461;28;20098;-91
2021/07/19 11:27:44;;;;;;;0.25;0.25;;;;;;;28.84;39.94;102307.22;5050783;28;20117;-91
2021/07/19 11:30:26;;;;;;;0.00;0.00;;;;;;;28.95;38.98;102299.09;5050573;28;20060;-92
2021/07/19 11:32:53;;;;;;;0.10;0.10;;;;;;;28.98;38.88;102298.84;5050774;28;20088;-91
2021/07/19 11:35:22;;;;;;;0.00;0.00;;;;;;;29.02;38.94;102302.22;5050293;28;20087;-91
2021/07/19 11:37:51;;;;;;;0.38;0.30;;;;;;;29.00;39.15;102302.34;5050376;28;20025;-91
2021/07/19 11:40:37;;;;;;;0.25;0.25;;;;;;;29.10;39.24;102309.81;5049655;28;20041;-91
2021/07/19 11:43:20;;;;;;;0.00;0.00;;;;;;;29.23;39.33;102302.44;5050032;28;20100;-92
2021/07/19 11:45:48;;;;;;;0.35;0.35;;;;;;;29.43;39.32;102297.34;5049592;28;20377;-91
2021/07/19 11:48:16;;;;;;;0.90;0.90;;;;;;;29.59;38.31;102291.56;5049525;28;20036;-92
2021/07/19 11:50:43;;;;;;;0.20;0.20;;;;;;;29.73;37.90;102299.50;5049508;28;20041;-91
2021/07/19 11:53:12;;;;;;;0.65;0.65;;;;;;;29.95;38.73;102295.97;5049549;28;20127;-92